createdAt,value
2018-07-15T00:01:22.062Z,15.78
2018-07-15T00:03:51.446Z,15.77
2018-07-15T00:06:20.132Z,15.70
2018-07-15T00:08:49.417Z,15.72
2018-07-15T00:11:18.116Z,15.70
2018-07-15T00:13:47.136Z,15.68
2018-07-15T00:16:15.741Z,15.65
2018-07-15T00:18:44.330Z,15.62
2018-07-15T00:21:13.063Z,15.56
2018-07-15T00:23:41.752Z,15.56
2018-07-15T00:26:11.040Z,15.56
2018-07-15T00:28:39.635Z,15.53
2018-07-15T00:31:08.417Z,15.56
2018-07-15T00:33:37.029Z,15.57
2018-07-15T00:36:06.447Z,15.53
2018-07-15T00:38:35.086Z,15.52
2018-07-15T00:41:03.786Z,15.54
2018-07-15T00:43:33.034Z,15.51
2018-07-15T00:46:02.111Z,15.52
2018-07-15T00:48:31.476Z,15.54
2018-07-15T00:51:00.793Z,15.50
2018-07-15T00:53:29.552Z,15.47
2018-07-15T00:55:58.348Z,15.43
2018-07-15T00:58:27.241Z,15.37
2018-07-15T01:01:01.437Z,15.33
2018-07-15T01:03:30.892Z,15.33
2018-07-15T01:05:59.836Z,15.28
2018-07-15T01:08:28.436Z,15.19
2018-07-15T01:10:57.256Z,15.17
2018-07-15T01:13:26.507Z,15.14
2018-07-15T01:15:55.162Z,15.15
2018-07-15T01:18:23.702Z,15.12
2018-07-15T01:20:52.318Z,15.11
2018-07-15T01:23:21.645Z,15.06
2018-07-15T01:25:50.728Z,14.91
2018-07-15T01:28:19.252Z,14.89
2018-07-15T01:30:48.294Z,14.89
2018-07-15T01:33:17.391Z,14.88
2018-07-15T01:35:46.042Z,14.83
2018-07-15T01:38:14.777Z,14.82
2018-07-15T01:40:43.342Z,14.78
2018-07-15T01:43:12.143Z,14.86
2018-07-15T01:45:40.852Z,14.81
2018-07-15T01:48:09.793Z,14.76
2018-07-15T01:50:38.361Z,14.73
2018-07-15T01:53:07.194Z,14.70
2018-07-15T01:55:35.878Z,14.70
2018-07-15T01:58:04.746Z,14.68
2018-07-15T02:00:33.343Z,14.65
2018-07-15T02:03:02.263Z,14.65
2018-07-15T02:05:31.708Z,14.57
2018-07-15T02:08:00.367Z,14.58
2018-07-15T02:10:29.007Z,14.57
2018-07-15T02:12:57.562Z,14.53
2018-07-15T02:15:26.307Z,14.50
2018-07-15T02:17:55.034Z,14.44
2018-07-15T02:20:23.751Z,14.37
2018-07-15T02:22:54.145Z,14.33
2018-07-15T02:25:23.481Z,14.31
2018-07-15T02:27:52.148Z,14.27
2018-07-15T02:30:21.643Z,14.22
2018-07-15T02:32:51.058Z,14.21
2018-07-15T02:35:19.609Z,14.23
2018-07-15T02:37:48.165Z,14.17
2018-07-15T02:40:17.047Z,14.13
2018-07-15T02:42:45.815Z,14.09
2018-07-15T02:45:14.792Z,14.04
2018-07-15T02:47:43.467Z,13.99
2018-07-15T02:50:12.225Z,14.02
2018-07-15T02:52:41.691Z,13.99
2018-07-15T02:55:11.122Z,13.99
2018-07-15T02:57:39.846Z,13.99
2018-07-15T03:00:09.571Z,13.96
2018-07-15T03:02:38.644Z,13.95
2018-07-15T03:05:07.294Z,13.94
2018-07-15T03:07:35.919Z,13.95
2018-07-15T03:10:04.669Z,13.96
2018-07-15T03:12:33.476Z,13.86
2018-07-15T03:15:02.049Z,13.81
2018-07-15T03:17:30.751Z,13.81
2018-07-15T03:19:59.325Z,13.80
2018-07-15T03:22:28.021Z,13.78
2018-07-15T03:24:56.748Z,13.80
2018-07-15T03:27:25.378Z,13.78
2018-07-15T03:29:53.948Z,13.80
2018-07-15T03:32:22.518Z,13.83
2018-07-15T03:34:51.018Z,13.80
2018-07-15T03:37:19.521Z,13.78
2018-07-15T03:39:48.285Z,13.77
2018-07-15T03:42:17.062Z,13.74
2018-07-15T03:44:45.799Z,13.75
2018-07-15T03:47:15.107Z,13.76
2018-07-15T03:49:44.027Z,13.71
2018-07-15T03:52:12.649Z,13.72
2018-07-15T03:54:41.679Z,13.72
2018-07-15T03:57:10.494Z,13.76
2018-07-15T03:59:39.225Z,13.82
2018-07-15T04:02:08.178Z,13.92
2018-07-15T04:04:36.937Z,13.96
2018-07-15T04:07:05.716Z,13.98
2018-07-15T04:09:34.307Z,14.03
2018-07-15T04:12:03.032Z,14.08
2018-07-15T04:14:31.679Z,14.12
2018-07-15T04:17:00.210Z,14.18
2018-07-15T04:19:28.786Z,14.25
2018-07-15T04:21:57.548Z,14.34
2018-07-15T04:24:27.367Z,14.43
2018-07-15T04:26:55.966Z,14.52
2018-07-15T04:29:24.814Z,14.63
2018-07-15T04:31:53.585Z,14.75
2018-07-15T04:34:22.323Z,14.86
2018-07-15T04:36:51.604Z,14.97
2018-07-15T04:39:20.132Z,15.03
2018-07-15T04:41:48.952Z,15.02
2018-07-15T04:44:17.603Z,15.07
2018-07-15T04:46:47.084Z,15.14
2018-07-15T04:49:15.633Z,15.21
2018-07-15T04:51:44.312Z,15.28
2018-07-15T04:54:12.852Z,15.35
2018-07-15T04:56:42.401Z,15.42
2018-07-15T04:59:11.022Z,15.53
2018-07-15T05:01:42.996Z,15.67
2018-07-15T05:04:13.411Z,15.81
2018-07-15T05:06:42.323Z,15.97
2018-07-15T05:09:11.438Z,16.17
2018-07-15T05:11:40.000Z,16.36
2018-07-15T05:14:09.190Z,16.55
2018-07-15T05:16:38.478Z,16.65
2018-07-15T05:19:07.092Z,16.86
2018-07-15T05:21:35.658Z,17.07
2018-07-15T05:24:04.244Z,17.30
2018-07-15T05:26:33.085Z,17.70
2018-07-15T05:29:02.389Z,18.30
2018-07-15T05:31:31.105Z,18.82
2018-07-15T05:33:59.802Z,19.36
2018-07-15T05:36:28.533Z,19.87
2018-07-15T05:38:57.353Z,20.48
2018-07-15T05:41:26.354Z,21.09
2018-07-15T05:43:55.207Z,21.34
2018-07-15T05:46:23.993Z,21.85
2018-07-15T05:48:52.593Z,22.28
2018-07-15T05:51:21.380Z,22.65
2018-07-15T05:53:50.667Z,23.09
2018-07-15T05:56:19.227Z,23.48
2018-07-15T05:58:48.032Z,23.86
2018-07-15T06:01:16.665Z,24.29
2018-07-15T06:03:45.228Z,24.71
2018-07-15T06:06:13.814Z,25.14
2018-07-15T06:08:44.137Z,25.58
2018-07-15T06:11:12.718Z,25.92
2018-07-15T06:13:41.623Z,26.26
2018-07-15T06:16:11.057Z,26.64
2018-07-15T06:18:39.813Z,26.72
2018-07-15T06:21:08.894Z,26.91
2018-07-15T06:23:37.605Z,27.36
2018-07-15T06:26:06.364Z,27.15
2018-07-15T06:28:34.959Z,27.38
2018-07-15T06:31:04.142Z,27.78
2018-07-15T06:33:33.179Z,26.97
2018-07-15T06:36:01.912Z,26.97
2018-07-15T06:38:30.418Z,28.23
2018-07-15T06:40:59.085Z,29.44
2018-07-15T06:43:27.764Z,29.51
2018-07-15T06:45:56.418Z,29.19
2018-07-15T06:48:25.041Z,29.11
2018-07-15T06:50:53.859Z,28.66
2018-07-15T06:53:23.340Z,28.15
2018-07-15T06:55:51.979Z,27.76
2018-07-15T06:58:20.645Z,27.13
2018-07-15T07:00:49.754Z,26.77
2018-07-15T07:03:18.398Z,26.56
2018-07-15T07:05:47.198Z,26.66
2018-07-15T07:08:15.780Z,26.33
2018-07-15T07:10:44.378Z,26.67
2018-07-15T07:13:12.978Z,26.84
2018-07-15T07:15:41.795Z,27.29
2018-07-15T07:18:10.478Z,27.75
2018-07-15T07:20:39.360Z,29.02
2018-07-15T07:23:07.960Z,30.24
2018-07-15T07:25:36.874Z,30.58
2018-07-15T07:28:05.693Z,29.97
2018-07-15T07:30:34.582Z,30.38
2018-07-15T07:33:03.546Z,31.03
2018-07-15T07:35:32.295Z,30.92
2018-07-15T07:38:01.364Z,32.00
2018-07-15T07:40:30.109Z,32.66
2018-07-15T07:42:58.789Z,32.32
2018-07-15T07:45:27.690Z,31.56
2018-07-15T07:47:56.488Z,30.67
2018-07-15T07:50:25.539Z,29.93
2018-07-15T07:52:55.122Z,29.87
2018-07-15T07:55:23.785Z,29.38
2018-07-15T07:57:52.589Z,29.77
2018-07-15T08:00:21.479Z,30.30
2018-07-15T08:02:50.859Z,30.34
2018-07-15T08:05:19.804Z,30.46
2018-07-15T08:07:49.286Z,30.24
2018-07-15T08:10:18.236Z,29.40
2018-07-15T08:12:46.907Z,28.35
2018-07-15T08:15:15.796Z,28.32
2018-07-15T08:17:44.609Z,28.31
2018-07-15T08:20:13.259Z,28.30
2018-07-15T08:22:42.067Z,28.48
2018-07-15T08:25:11.845Z,28.51
2018-07-15T08:27:40.578Z,29.42
2018-07-15T08:30:20.201Z,30.60
2018-07-15T08:32:49.103Z,31.56
2018-07-15T08:35:18.407Z,31.74
2018-07-15T08:37:47.095Z,32.44
2018-07-15T08:40:15.885Z,32.56
2018-07-15T08:42:44.757Z,33.43
2018-07-15T08:45:13.580Z,33.88
2018-07-15T08:47:42.355Z,34.14
2018-07-15T08:50:10.991Z,35.20
2018-07-15T08:52:39.883Z,36.67
2018-07-15T08:55:08.805Z,37.70
2018-07-15T08:57:37.470Z,38.37
2018-07-15T09:00:06.314Z,39.35
2018-07-15T09:02:35.888Z,37.98
2018-07-15T09:05:04.748Z,37.52
2018-07-15T09:07:34.453Z,37.43
2018-07-15T09:10:03.254Z,38.58
2018-07-15T09:12:31.937Z,39.34
2018-07-15T09:15:01.004Z,40.39
2018-07-15T09:17:29.784Z,40.38
2018-07-15T09:19:58.450Z,40.43
2018-07-15T09:22:27.364Z,40.83
2018-07-15T09:24:56.020Z,41.15
2018-07-15T09:27:24.895Z,41.77
2018-07-15T09:29:53.608Z,40.79
2018-07-15T09:32:22.591Z,41.59
2018-07-15T09:34:51.451Z,40.25
2018-07-15T09:37:20.234Z,38.59
2018-07-15T09:39:48.910Z,36.70
2018-07-15T09:42:17.829Z,35.75
2018-07-15T09:44:46.810Z,36.58
2018-07-15T09:47:16.134Z,37.14
2018-07-15T09:49:45.021Z,38.69
2018-07-15T09:52:13.825Z,39.39
2018-07-15T09:54:42.589Z,39.89
2018-07-15T09:57:11.476Z,40.48
2018-07-15T09:59:40.111Z,40.95
2018-07-15T10:02:08.911Z,40.74
2018-07-15T10:04:37.843Z,41.69
2018-07-15T10:07:06.564Z,43.16
2018-07-15T10:09:35.440Z,44.36
2018-07-15T10:12:04.299Z,44.93
2018-07-15T10:14:33.427Z,43.78
2018-07-15T10:17:02.386Z,42.80
2018-07-15T10:19:31.089Z,42.78
2018-07-15T10:22:07.226Z,44.24
2018-07-15T10:24:35.913Z,45.18
2018-07-15T10:27:04.516Z,45.73
2018-07-15T10:29:33.895Z,47.14
2018-07-15T10:32:02.824Z,46.98
2018-07-15T10:34:31.488Z,46.11
2018-07-15T10:37:00.543Z,46.62
2018-07-15T10:39:29.173Z,46.36
2018-07-15T10:41:57.819Z,45.76
2018-07-15T10:44:26.541Z,43.85
2018-07-15T10:46:55.386Z,42.11
2018-07-15T10:49:24.283Z,40.80
2018-07-15T10:51:53.191Z,39.20
2018-07-15T10:54:22.128Z,37.79
2018-07-15T10:56:51.235Z,36.34
2018-07-15T10:59:20.153Z,35.52
2018-07-15T11:01:48.969Z,35.10
2018-07-15T11:04:17.791Z,34.42
2018-07-15T11:06:46.414Z,34.09
2018-07-15T11:09:15.328Z,33.65
2018-07-15T11:11:44.700Z,33.41
2018-07-15T11:14:13.478Z,33.05
2018-07-15T11:16:42.227Z,32.71
2018-07-15T11:19:10.900Z,32.51
2018-07-15T11:21:39.528Z,32.16
2018-07-15T11:24:08.545Z,31.89
2018-07-15T11:26:37.370Z,31.64
2018-07-15T11:29:06.223Z,31.48
2018-07-15T11:31:34.904Z,30.62
2018-07-15T11:34:03.761Z,29.91
2018-07-15T11:36:32.677Z,29.76
2018-07-15T11:39:02.241Z,29.43
2018-07-15T11:41:30.881Z,28.24
2018-07-15T11:43:59.502Z,27.41
2018-07-15T11:46:28.479Z,26.46
2018-07-15T11:48:57.304Z,25.94
2018-07-15T11:51:26.037Z,25.16
2018-07-15T11:53:54.766Z,24.66
2018-07-15T11:56:23.824Z,24.16
2018-07-15T11:58:52.620Z,23.84
2018-07-15T12:01:21.330Z,23.77
2018-07-15T12:03:49.941Z,23.64
2018-07-15T12:06:18.909Z,23.57
2018-07-15T12:08:48.283Z,23.45
2018-07-15T12:11:17.430Z,23.17
2018-07-15T12:13:46.406Z,22.85
2018-07-15T12:16:15.296Z,22.59
2018-07-15T12:18:44.155Z,22.33
2018-07-15T12:21:13.165Z,22.36
2018-07-15T12:23:42.095Z,22.07
2018-07-15T12:26:10.640Z,22.20
2018-07-15T12:28:40.461Z,22.11
2018-07-15T12:31:10.645Z,22.05
2018-07-15T12:33:39.346Z,21.76
2018-07-15T12:36:09.556Z,21.95
2018-07-15T12:38:38.720Z,22.00
2018-07-15T12:41:08.140Z,22.39
2018-07-15T12:43:37.131Z,22.89
2018-07-15T12:46:06.546Z,23.32
2018-07-15T12:48:35.225Z,23.25
2018-07-15T12:51:04.018Z,23.18
2018-07-15T12:53:33.836Z,23.18
2018-07-15T12:56:03.321Z,23.09
2018-07-15T12:58:32.297Z,23.26
2018-07-15T13:01:01.851Z,23.80
2018-07-15T13:03:30.912Z,24.21
2018-07-15T13:05:59.791Z,24.27
2018-07-15T13:08:28.711Z,24.45
2018-07-15T13:10:57.562Z,24.52
2018-07-15T13:13:26.362Z,24.58
2018-07-15T13:15:55.278Z,24.67
2018-07-15T13:18:23.979Z,24.70
2018-07-15T13:20:52.701Z,24.91
2018-07-15T13:23:21.677Z,25.07
2018-07-15T13:25:50.632Z,24.83
2018-07-15T13:28:19.604Z,24.60
2018-07-15T13:30:48.422Z,24.37
2018-07-15T13:33:17.326Z,24.33
2018-07-15T13:35:46.116Z,24.28
2018-07-15T13:38:14.780Z,24.28
2018-07-15T13:40:43.733Z,24.33
2018-07-15T13:43:12.566Z,24.40
2018-07-15T13:45:41.274Z,24.50
2018-07-15T13:48:10.198Z,24.40
2018-07-15T13:50:39.187Z,24.43
2018-07-15T13:53:08.325Z,24.41
2018-07-15T13:55:37.646Z,24.21
2018-07-15T13:58:06.573Z,24.04
2018-07-15T14:00:36.198Z,23.88
2018-07-15T14:03:05.348Z,23.79
2018-07-15T14:05:33.957Z,23.79
2018-07-15T14:08:02.976Z,23.84
2018-07-15T14:10:32.226Z,24.29
2018-07-15T14:13:00.917Z,24.68
2018-07-15T14:15:29.840Z,24.88
2018-07-15T14:17:58.837Z,24.82
2018-07-15T14:20:27.584Z,24.72
2018-07-15T14:22:56.260Z,24.70
2018-07-15T14:25:25.139Z,24.73
2018-07-15T14:27:53.885Z,24.76
2018-07-15T14:30:22.973Z,24.41
2018-07-15T14:32:51.780Z,24.10
2018-07-15T14:35:20.414Z,24.12
2018-07-15T14:37:49.200Z,24.15
2018-07-15T14:40:17.887Z,24.10
2018-07-15T14:42:46.715Z,24.05
2018-07-15T14:45:16.061Z,24.13
2018-07-15T14:47:44.801Z,24.25
2018-07-15T14:50:14.490Z,24.27
2018-07-15T14:52:43.312Z,24.28
2018-07-15T14:55:12.233Z,24.13
2018-07-15T14:57:41.407Z,23.99
2018-07-15T15:00:10.697Z,23.91
2018-07-15T15:02:39.603Z,23.97
2018-07-15T15:05:08.651Z,24.07
2018-07-15T15:07:37.336Z,24.23
2018-07-15T15:10:06.403Z,24.25
2018-07-15T15:12:35.471Z,24.19
2018-07-15T15:15:04.336Z,24.06
2018-07-15T15:17:33.157Z,24.03
2018-07-15T15:20:01.730Z,24.00
2018-07-15T15:22:30.701Z,23.92
2018-07-15T15:24:59.706Z,23.82
2018-07-15T15:27:28.456Z,23.78
2018-07-15T15:29:58.687Z,23.76
2018-07-15T15:32:27.436Z,23.71
2018-07-15T15:34:56.157Z,23.67
2018-07-15T15:37:25.213Z,23.74
2018-07-15T15:39:54.175Z,23.83
2018-07-15T15:42:23.827Z,23.99
2018-07-15T15:44:52.822Z,24.03
2018-07-15T15:47:22.822Z,24.06
2018-07-15T15:49:52.302Z,24.00
2018-07-15T15:52:21.407Z,23.96
2018-07-15T15:54:50.377Z,23.93
2018-07-15T15:57:19.066Z,23.79
2018-07-15T15:59:48.171Z,23.66
2018-07-15T16:02:23.706Z,23.54
2018-07-15T16:04:52.656Z,23.50
2018-07-15T16:07:21.499Z,23.49
2018-07-15T16:09:50.831Z,23.56
2018-07-15T16:12:19.948Z,23.65
2018-07-15T16:14:49.196Z,23.93
2018-07-15T16:17:18.424Z,24.21
2018-07-15T16:19:47.859Z,24.63
2018-07-15T16:22:16.798Z,25.12
2018-07-15T16:24:46.089Z,25.70
2018-07-15T16:27:15.568Z,26.01
2018-07-15T16:29:44.249Z,26.12
2018-07-15T16:32:13.978Z,26.24
2018-07-15T16:34:43.042Z,26.16
2018-07-15T16:37:13.266Z,26.15
2018-07-15T16:39:42.407Z,26.16
2018-07-15T16:42:11.677Z,26.11
2018-07-15T16:44:41.932Z,26.13
2018-07-15T16:47:11.059Z,26.31
2018-07-15T16:49:40.386Z,26.50
2018-07-15T16:52:09.223Z,26.62
2018-07-15T16:54:38.333Z,26.60
2018-07-15T16:57:07.187Z,26.60
2018-07-15T16:59:36.170Z,26.58
2018-07-15T17:02:05.594Z,26.60
2018-07-15T17:04:34.646Z,26.77
2018-07-15T17:07:03.682Z,26.83
2018-07-15T17:09:32.536Z,26.97
2018-07-15T17:12:01.667Z,27.19
2018-07-15T17:14:30.852Z,27.19
2018-07-15T17:16:59.801Z,27.18
2018-07-15T17:19:29.156Z,27.14
2018-07-15T17:21:58.551Z,27.19
2018-07-15T17:24:27.666Z,27.36
2018-07-15T17:26:56.606Z,27.45
2018-07-15T17:29:25.534Z,27.34
2018-07-15T17:31:54.517Z,27.17
2018-07-15T17:34:23.519Z,26.76
2018-07-15T17:36:52.434Z,26.42
2018-07-15T17:39:21.612Z,26.12
2018-07-15T17:41:50.734Z,25.91
2018-07-15T17:44:20.213Z,25.55
2018-07-15T17:46:49.487Z,25.37
2018-07-15T17:49:19.041Z,25.16
2018-07-15T17:51:48.057Z,24.93
2018-07-15T17:54:18.065Z,24.68
2018-07-15T17:56:47.065Z,24.60
2018-07-15T17:59:16.019Z,24.50
2018-07-15T18:01:45.064Z,24.27
2018-07-15T18:04:14.257Z,24.22
2018-07-15T18:06:43.353Z,24.10
2018-07-15T18:09:12.502Z,24.05
2018-07-15T18:11:41.845Z,23.93
2018-07-15T18:14:11.062Z,23.62
2018-07-15T18:16:40.144Z,23.27
2018-07-15T18:19:09.336Z,23.15
2018-07-15T18:21:38.706Z,22.96
2018-07-15T18:24:07.742Z,22.80
2018-07-15T18:26:36.995Z,22.65
2018-07-15T18:29:05.962Z,22.47
2018-07-15T18:31:34.987Z,22.17
2018-07-15T18:34:04.931Z,21.90
2018-07-15T18:36:34.019Z,21.86
2018-07-15T18:39:03.414Z,21.82
2018-07-15T18:41:32.513Z,21.79
2018-07-15T18:44:01.249Z,21.72
2018-07-15T18:46:30.571Z,21.64
2018-07-15T18:48:59.512Z,21.55
2018-07-15T18:51:28.373Z,21.48
2018-07-15T18:53:57.167Z,21.39
2018-07-15T18:56:26.105Z,21.21
2018-07-15T18:58:55.252Z,21.08
2018-07-15T19:01:24.427Z,21.06
2018-07-15T19:03:53.548Z,21.05
2018-07-15T19:06:22.857Z,21.03
2018-07-15T19:08:53.158Z,21.00
2018-07-15T19:11:23.214Z,20.90
2018-07-15T19:13:52.410Z,20.86
2018-07-15T19:16:21.537Z,20.81
2018-07-15T19:18:50.678Z,20.70
2018-07-15T19:21:20.057Z,20.69
2018-07-15T19:23:49.229Z,20.52
2018-07-15T19:26:18.289Z,20.32
2018-07-15T19:28:47.495Z,20.25
2018-07-15T19:31:17.188Z,20.16
2018-07-15T19:33:46.198Z,20.10
2018-07-15T19:36:15.382Z,20.05
2018-07-15T19:38:44.426Z,19.94
2018-07-15T19:41:13.284Z,19.85
2018-07-15T19:43:42.989Z,19.93
2018-07-15T19:46:12.110Z,19.90
2018-07-15T19:48:40.958Z,19.84
2018-07-15T19:51:10.251Z,19.73
2018-07-15T19:53:39.644Z,19.80
2018-07-15T19:56:08.940Z,19.89
2018-07-15T19:58:38.349Z,19.84
2018-07-15T20:01:07.947Z,19.85
2018-07-15T20:03:36.828Z,19.85
2018-07-15T20:06:06.083Z,19.70
2018-07-15T20:08:35.228Z,19.68
2018-07-15T20:11:04.711Z,19.69
2018-07-15T20:13:34.087Z,19.58
2018-07-15T20:16:02.974Z,19.46
2018-07-15T20:18:32.057Z,19.38
2018-07-15T20:21:01.359Z,19.39
2018-07-15T20:23:30.324Z,19.33
2018-07-15T20:25:59.617Z,19.22
2018-07-15T20:28:28.809Z,19.18
2018-07-15T20:30:57.997Z,19.11
2018-07-15T20:33:26.955Z,19.07
2018-07-15T20:35:55.760Z,19.00
2018-07-15T20:38:24.498Z,19.04
2018-07-15T20:40:53.343Z,19.14
2018-07-15T20:43:22.352Z,19.15
2018-07-15T20:45:51.545Z,19.04
2018-07-15T20:48:20.373Z,18.99
2018-07-15T20:50:49.274Z,18.99
2018-07-15T20:53:18.189Z,18.98
2018-07-15T20:55:47.407Z,18.98
2018-07-15T20:58:16.514Z,18.90
2018-07-15T21:00:46.000Z,18.89
2018-07-15T21:03:17.265Z,18.80
2018-07-15T21:05:46.436Z,18.74
2018-07-15T21:08:15.548Z,18.69
2018-07-15T21:10:44.788Z,18.68
2018-07-15T21:13:13.870Z,18.65
2018-07-15T21:15:42.795Z,18.58
2018-07-15T21:18:11.550Z,18.59
2018-07-15T21:20:40.495Z,18.59
2018-07-15T21:23:09.304Z,18.61
2018-07-15T21:25:38.277Z,18.59
2018-07-15T21:28:07.290Z,18.55
2018-07-15T21:30:36.133Z,18.51
2018-07-15T21:33:04.893Z,18.48
2018-07-15T21:35:33.926Z,18.45
2018-07-15T21:38:02.853Z,18.45
2018-07-15T21:40:31.774Z,18.40
2018-07-15T21:43:00.695Z,18.39
2018-07-15T21:45:29.636Z,18.31
2018-07-15T21:47:58.464Z,18.20
2018-07-15T21:50:27.352Z,18.12
2018-07-15T21:52:56.263Z,18.09
2018-07-15T21:55:24.980Z,18.11
2018-07-15T21:57:53.992Z,18.10
2018-07-15T22:00:22.888Z,18.02
2018-07-15T22:02:52.232Z,17.94
2018-07-15T22:05:21.134Z,17.93
2018-07-15T22:08:00.833Z,17.88
2018-07-15T22:10:34.808Z,17.82
2018-07-15T22:13:03.745Z,17.78
2018-07-15T22:15:33.255Z,17.74
2018-07-15T22:18:02.145Z,17.76
2018-07-15T22:20:31.014Z,17.84
2018-07-15T22:22:59.754Z,17.85
2018-07-15T22:25:28.454Z,17.92
2018-07-15T22:27:57.428Z,17.98
2018-07-15T22:30:26.529Z,17.88
2018-07-15T22:32:55.243Z,17.79
2018-07-15T22:35:24.169Z,17.75
2018-07-15T22:37:53.123Z,17.74
2018-07-15T22:40:21.930Z,17.71
2018-07-15T22:42:50.642Z,17.64
2018-07-15T22:45:20.006Z,17.63
2018-07-15T22:47:49.398Z,17.50
2018-07-15T22:50:18.368Z,17.53
2018-07-15T22:52:47.099Z,17.60
2018-07-15T22:55:15.884Z,17.64
2018-07-15T22:57:44.749Z,17.71
2018-07-15T23:00:13.575Z,17.75
2018-07-15T23:02:42.520Z,17.69
2018-07-15T23:05:51.623Z,17.70
2018-07-15T23:08:20.679Z,17.50
2018-07-15T23:10:50.328Z,17.48
2018-07-15T23:13:19.418Z,17.45
2018-07-15T23:15:48.415Z,17.46
2018-07-15T23:18:16.981Z,17.52
2018-07-15T23:20:46.597Z,17.55
2018-07-15T23:23:15.778Z,17.48
2018-07-15T23:25:44.484Z,17.34
2018-07-15T23:28:14.759Z,17.33
2018-07-15T23:30:43.976Z,17.32
2018-07-15T23:33:14.453Z,17.34
2018-07-15T23:35:43.025Z,17.30
2018-07-15T23:38:11.701Z,17.29
2018-07-15T23:40:40.943Z,17.27
2018-07-15T23:43:09.553Z,17.26
2018-07-15T23:45:38.320Z,17.29
2018-07-15T23:48:07.216Z,17.30
2018-07-15T23:50:35.849Z,17.28
2018-07-15T23:53:04.704Z,17.29
2018-07-15T23:55:34.247Z,17.23
2018-07-15T23:58:02.920Z,17.24
